createdAt,value
2023-01-26T00:02:31.018Z,45.68
2023-01-26T00:12:37.781Z,45.67
2023-01-26T00:22:44.894Z,45.72
2023-01-26T00:32:52.245Z,45.71
2023-01-26T00:42:59.200Z,45.58
2023-01-26T00:53:06.284Z,45.72
2023-01-26T01:03:13.203Z,45.50
2023-01-26T01:13:20.709Z,45.47
2023-01-26T01:23:27.255Z,45.32
2023-01-26T01:33:34.481Z,45.28
2023-01-26T01:43:41.292Z,45.17
2023-01-26T01:53:48.437Z,45.17
2023-01-26T02:03:55.842Z,45.13
2023-01-26T02:14:02.828Z,45.11
2023-01-26T02:24:09.617Z,45.08
2023-01-26T02:34:16.761Z,44.99
2023-01-26T02:44:23.976Z,44.99
2023-01-26T02:54:31.162Z,45.14
2023-01-26T03:04:37.851Z,44.97
2023-01-26T03:14:44.675Z,45.05
2023-01-26T03:24:51.864Z,44.84
2023-01-26T03:34:59.157Z,44.95
2023-01-26T03:45:06.043Z,44.90
2023-01-26T03:55:12.994Z,44.70
2023-01-26T04:05:19.845Z,44.75
2023-01-26T04:15:25.847Z,44.63
2023-01-26T04:25:33.515Z,44.62
2023-01-26T04:35:41.310Z,44.52
2023-01-26T04:45:48.464Z,44.59
2023-01-26T04:55:55.416Z,44.57
2023-01-26T05:06:02.601Z,44.52
2023-01-26T05:16:09.542Z,44.45
2023-01-26T05:26:17.755Z,44.65
2023-01-26T05:36:24.172Z,44.49
2023-01-26T05:46:31.323Z,44.40
2023-01-26T05:56:38.651Z,44.42
2023-01-26T06:06:45.286Z,45.42
2023-01-26T06:16:52.495Z,46.68
2023-01-26T06:26:59.601Z,47.02
2023-01-26T06:37:06.460Z,46.75
2023-01-26T06:47:13.684Z,46.41
2023-01-26T06:57:20.438Z,46.33
2023-01-26T07:07:27.480Z,46.03
2023-01-26T07:17:33.728Z,46.10
2023-01-26T07:27:40.908Z,46.21
2023-01-26T07:37:48.231Z,45.97
2023-01-26T07:47:55.598Z,43.72
2023-01-26T07:58:01.995Z,45.00
2023-01-26T08:08:08.731Z,45.55
2023-01-26T08:18:16.475Z,44.71
2023-01-26T08:28:23.087Z,38.09
2023-01-26T08:38:30.157Z,38.09
2023-01-26T08:48:37.586Z,39.14
2023-01-26T08:58:44.579Z,39.99
2023-01-26T09:08:51.614Z,36.70
2023-01-26T09:18:58.573Z,44.20
2023-01-26T09:29:05.636Z,43.10
2023-01-26T09:39:12.606Z,44.91
2023-01-26T09:49:19.585Z,45.23
2023-01-26T09:59:26.373Z,45.36
2023-01-26T10:09:33.615Z,44.75
2023-01-26T10:19:40.317Z,44.97
2023-01-26T10:29:47.907Z,45.29
2023-01-26T10:39:54.679Z,46.36
2023-01-26T10:50:02.117Z,47.33
2023-01-26T11:00:09.042Z,44.81
2023-01-26T11:10:15.344Z,47.12
2023-01-26T11:20:22.117Z,47.94
2023-01-26T11:30:29.203Z,47.83
2023-01-26T11:40:36.240Z,45.60
2023-01-26T11:50:42.885Z,47.59
2023-01-26T12:00:50.251Z,48.06
2023-01-26T12:10:57.186Z,48.27
2023-01-26T12:21:04.587Z,47.20
2023-01-26T12:31:11.557Z,48.28
2023-01-26T12:41:18.643Z,47.58
2023-01-26T12:51:25.181Z,48.06
2023-01-26T13:01:32.317Z,48.17
2023-01-26T13:11:39.396Z,47.70
2023-01-26T13:21:46.595Z,45.03
2023-01-26T13:31:53.693Z,46.69
2023-01-26T13:42:00.778Z,47.06
2023-01-26T13:52:07.642Z,47.73
2023-01-26T14:02:14.466Z,48.65
2023-01-26T14:12:21.844Z,45.07
2023-01-26T14:22:28.744Z,44.89
2023-01-26T14:32:35.979Z,44.73
2023-01-26T14:42:42.809Z,44.76
2023-01-26T14:52:50.008Z,45.77
2023-01-26T15:02:56.915Z,44.86
2023-01-26T15:13:04.408Z,44.87
2023-01-26T15:23:11.895Z,44.67
2023-01-26T15:33:19.079Z,44.72
2023-01-26T15:43:26.006Z,44.72
2023-01-26T15:53:33.252Z,44.48
2023-01-26T16:03:39.966Z,44.18
2023-01-26T16:14:02.035Z,43.71
2023-01-26T16:23:59.211Z,43.51
2023-01-26T16:34:05.688Z,43.33
2023-01-26T16:44:12.385Z,41.43
2023-01-26T16:54:19.419Z,39.31
2023-01-26T17:04:26.259Z,43.84
2023-01-26T17:14:33.974Z,44.64
2023-01-26T17:24:41.887Z,45.02
2023-01-26T17:34:48.413Z,45.45
2023-01-26T17:44:55.715Z,45.86
2023-01-26T17:55:02.579Z,46.17
2023-01-26T18:05:10.421Z,47.28
2023-01-26T18:15:17.965Z,47.97
2023-01-26T18:25:24.917Z,48.74
2023-01-26T18:35:31.990Z,48.79
2023-01-26T18:45:39.055Z,48.74
2023-01-26T18:55:46.590Z,48.51
2023-01-26T19:05:53.796Z,48.67
2023-01-26T19:16:00.124Z,48.65
2023-01-26T19:26:07.454Z,48.41
2023-01-26T19:36:14.268Z,48.47
2023-01-26T19:46:21.293Z,48.39
2023-01-26T19:56:28.424Z,48.25
2023-01-26T20:06:35.297Z,48.28
2023-01-26T20:16:42.211Z,48.32
2023-01-26T20:26:49.155Z,48.19
2023-01-26T20:36:55.369Z,48.16
2023-01-26T20:47:02.672Z,48.19
2023-01-26T20:57:09.483Z,47.96
2023-01-26T21:07:16.363Z,48.09
2023-01-26T21:17:23.762Z,48.12
2023-01-26T21:27:30.563Z,47.94
2023-01-26T21:37:37.886Z,47.77
2023-01-26T21:47:44.514Z,47.71
2023-01-26T21:57:51.621Z,47.76
2023-01-26T22:07:58.890Z,47.65
2023-01-26T22:18:05.539Z,47.88
2023-01-26T22:28:13.034Z,47.56
2023-01-26T22:38:19.728Z,47.43
2023-01-26T22:48:26.926Z,47.12
2023-01-26T22:58:35.226Z,47.22
2023-01-26T23:08:45.042Z,47.05
2023-01-26T23:18:52.086Z,47.29
2023-01-26T23:28:59.136Z,46.91
2023-01-26T23:39:06.553Z,46.64
2023-01-26T23:49:12.993Z,46.50
2023-01-26T23:59:20.135Z,46.45
